sensor_id;sensor_type;location;lat;lon;timestamp;temperature;humidity
16402;DHT22;8310;44.626;11.176;2023-06-04T00:02:23;21.30;56.20
16402;DHT22;8310;44.626;11.176;2023-06-04T00:04:51;21.30;56.20
16402;DHT22;8310;44.626;11.176;2023-06-04T00:07:18;21.40;56.30
16402;DHT22;8310;44.626;11.176;2023-06-04T00:09:47;21.30;56.20
16402;DHT22;8310;44.626;11.176;2023-06-04T00:12:14;21.30;56.20
16402;DHT22;8310;44.626;11.176;2023-06-04T00:14:42;21.30;56.20
16402;DHT22;8310;44.626;11.176;2023-06-04T00:17:09;21.30;56.20
16402;DHT22;8310;44.626;11.176;2023-06-04T00:19:37;21.30;56.20
16402;DHT22;8310;44.626;11.176;2023-06-04T00:22:07;21.30;56.30
16402;DHT22;8310;44.626;11.176;2023-06-04T00:24:35;21.30;56.20
16402;DHT22;8310;44.626;11.176;2023-06-04T00:27:03;21.30;56.30
16402;DHT22;8310;44.626;11.176;2023-06-04T00:29:30;21.30;56.30
16402;DHT22;8310;44.626;11.176;2023-06-04T00:31:57;21.30;56.20
16402;DHT22;8310;44.626;11.176;2023-06-04T00:34:25;21.30;56.20
16402;DHT22;8310;44.626;11.176;2023-06-04T00:36:53;21.30;56.20
16402;DHT22;8310;44.626;11.176;2023-06-04T00:39:21;21.30;56.30
16402;DHT22;8310;44.626;11.176;2023-06-04T00:41:49;21.30;56.30
16402;DHT22;8310;44.626;11.176;2023-06-04T00:44:16;21.30;56.40
16402;DHT22;8310;44.626;11.176;2023-06-04T00:46:43;21.30;56.30
16402;DHT22;8310;44.626;11.176;2023-06-04T00:49:13;21.30;56.30
16402;DHT22;8310;44.626;11.176;2023-06-04T00:51:40;21.30;56.30
16402;DHT22;8310;44.626;11.176;2023-06-04T00:54:07;21.30;56.30
16402;DHT22;8310;44.626;11.176;2023-06-04T00:56:36;21.30;56.30
16402;DHT22;8310;44.626;11.176;2023-06-04T00:59:04;21.30;56.30
16402;DHT22;8310;44.626;11.176;2023-06-04T01:01:33;21.20;56.30
16402;DHT22;8310;44.626;11.176;2023-06-04T01:04:02;21.20;56.30
16402;DHT22;8310;44.626;11.176;2023-06-04T01:06:35;21.20;56.30
16402;DHT22;8310;44.626;11.176;2023-06-04T01:09:02;21.20;56.40
16402;DHT22;8310;44.626;11.176;2023-06-04T01:11:31;21.20;57.10
16402;DHT22;8310;44.626;11.176;2023-06-04T01:14:01;21.20;56.50
16402;DHT22;8310;44.626;11.176;2023-06-04T01:16:29;21.10;56.80
16402;DHT22;8310;44.626;11.176;2023-06-04T01:18:58;21.10;56.70
16402;DHT22;8310;44.626;11.176;2023-06-04T01:21:26;21.00;57.60
16402;DHT22;8310;44.626;11.176;2023-06-04T01:23:56;21.00;56.60
16402;DHT22;8310;44.626;11.176;2023-06-04T01:26:27;20.90;56.30
16402;DHT22;8310;44.626;11.176;2023-06-04T01:28:55;20.90;56.20
16402;DHT22;8310;44.626;11.176;2023-06-04T01:31:24;20.90;56.20
16402;DHT22;8310;44.626;11.176;2023-06-04T01:33:51;20.80;56.00
16402;DHT22;8310;44.626;11.176;2023-06-04T01:36:18;20.70;55.90
16402;DHT22;8310;44.626;11.176;2023-06-04T01:38:46;20.70;56.10
16402;DHT22;8310;44.626;11.176;2023-06-04T01:41:13;20.60;56.20
16402;DHT22;8310;44.626;11.176;2023-06-04T01:43:40;20.50;55.90
16402;DHT22;8310;44.626;11.176;2023-06-04T01:46:07;20.50;56.00
16402;DHT22;8310;44.626;11.176;2023-06-04T01:48:36;20.40;56.00
16402;DHT22;8310;44.626;11.176;2023-06-04T01:51:04;20.30;56.00
16402;DHT22;8310;44.626;11.176;2023-06-04T01:53:31;20.20;56.00
16402;DHT22;8310;44.626;11.176;2023-06-04T01:55:59;20.20;56.10
16402;DHT22;8310;44.626;11.176;2023-06-04T01:58:26;20.20;56.00
16402;DHT22;8310;44.626;11.176;2023-06-04T02:00:54;20.10;56.10
16402;DHT22;8310;44.626;11.176;2023-06-04T02:03:21;20.10;56.20
16402;DHT22;8310;44.626;11.176;2023-06-04T02:05:50;20.10;56.20
16402;DHT22;8310;44.626;11.176;2023-06-04T02:08:18;20.10;56.30
16402;DHT22;8310;44.626;11.176;2023-06-04T02:10:45;20.10;56.20
16402;DHT22;8310;44.626;11.176;2023-06-04T02:13:13;20.00;56.20
16402;DHT22;8310;44.626;11.176;2023-06-04T02:15:40;20.00;56.90
16402;DHT22;8310;44.626;11.176;2023-06-04T02:18:14;20.00;56.30
16402;DHT22;8310;44.626;11.176;2023-06-04T02:20:42;20.10;56.30
16402;DHT22;8310;44.626;11.176;2023-06-04T02:23:12;20.00;56.30
16402;DHT22;8310;44.626;11.176;2023-06-04T02:25:39;20.00;56.30
16402;DHT22;8310;44.626;11.176;2023-06-04T02:28:11;20.00;56.30
16402;DHT22;8310;44.626;11.176;2023-06-04T02:30:38;20.00;56.30
16402;DHT22;8310;44.626;11.176;2023-06-04T02:33:05;20.00;56.30
16402;DHT22;8310;44.626;11.176;2023-06-04T02:35:35;20.00;56.30
16402;DHT22;8310;44.626;11.176;2023-06-04T02:38:02;19.90;56.20
16402;DHT22;8310;44.626;11.176;2023-06-04T02:40:31;19.90;56.20
16402;DHT22;8310;44.626;11.176;2023-06-04T02:42:58;19.80;56.10
16402;DHT22;8310;44.626;11.176;2023-06-04T02:45:25;19.80;56.20
16402;DHT22;8310;44.626;11.176;2023-06-04T02:47:53;19.70;56.10
16402;DHT22;8310;44.626;11.176;2023-06-04T02:50:20;19.70;56.20
16402;DHT22;8310;44.626;11.176;2023-06-04T02:52:48;19.70;56.20
16402;DHT22;8310;44.626;11.176;2023-06-04T02:55:15;19.70;56.20
16402;DHT22;8310;44.626;11.176;2023-06-04T02:57:43;19.60;56.20
16402;DHT22;8310;44.626;11.176;2023-06-04T03:00:10;19.60;56.30
16402;DHT22;8310;44.626;11.176;2023-06-04T03:02:39;19.60;56.30
16402;DHT22;8310;44.626;11.176;2023-06-04T03:05:07;19.60;56.40
16402;DHT22;8310;44.626;11.176;2023-06-04T03:07:35;19.70;56.50
16402;DHT22;8310;44.626;11.176;2023-06-04T03:10:02;19.70;56.50
16402;DHT22;8310;44.626;11.176;2023-06-04T03:12:29;19.70;56.50
16402;DHT22;8310;44.626;11.176;2023-06-04T03:14:59;19.70;56.40
16402;DHT22;8310;44.626;11.176;2023-06-04T03:17:26;19.60;56.30
16402;DHT22;8310;44.626;11.176;2023-06-04T03:19:53;19.60;56.50
16402;DHT22;8310;44.626;11.176;2023-06-04T03:22:21;19.60;56.40
16402;DHT22;8310;44.626;11.176;2023-06-04T03:24:49;19.60;56.40
16402;DHT22;8310;44.626;11.176;2023-06-04T03:27:16;19.50;56.40
16402;DHT22;8310;44.626;11.176;2023-06-04T03:29:43;19.50;56.30
16402;DHT22;8310;44.626;11.176;2023-06-04T03:32:12;19.50;56.40
16402;DHT22;8310;44.626;11.176;2023-06-04T03:34:41;19.50;56.50
16402;DHT22;8310;44.626;11.176;2023-06-04T03:37:08;19.50;56.50
16402;DHT22;8310;44.626;11.176;2023-06-04T03:39:35;19.50;56.70
16402;DHT22;8310;44.626;11.176;2023-06-04T03:42:03;19.50;56.90
16402;DHT22;8310;44.626;11.176;2023-06-04T03:44:30;19.50;56.80
16402;DHT22;8310;44.626;11.176;2023-06-04T03:46:57;19.50;56.70
16402;DHT22;8310;44.626;11.176;2023-06-04T03:49:26;19.50;56.70
16402;DHT22;8310;44.626;11.176;2023-06-04T03:51:53;19.60;56.70
16402;DHT22;8310;44.626;11.176;2023-06-04T03:54:21;19.60;56.70
16402;DHT22;8310;44.626;11.176;2023-06-04T03:56:48;19.60;56.70
16402;DHT22;8310;44.626;11.176;2023-06-04T03:59:15;19.60;56.70
16402;DHT22;8310;44.626;11.176;2023-06-04T04:01:42;19.60;56.80
16402;DHT22;8310;44.626;11.176;2023-06-04T04:04:09;19.50;56.60
16402;DHT22;8310;44.626;11.176;2023-06-04T04:06:38;19.50;56.70
16402;DHT22;8310;44.626;11.176;2023-06-04T04:09:06;19.50;56.70
16402;DHT22;8310;44.626;11.176;2023-06-04T04:11:33;19.50;56.80
16402;DHT22;8310;44.626;11.176;2023-06-04T04:14:00;19.50;56.70
16402;DHT22;8310;44.626;11.176;2023-06-04T04:16:27;19.40;56.70
16402;DHT22;8310;44.626;11.176;2023-06-04T04:18:54;19.40;56.60
16402;DHT22;8310;44.626;11.176;2023-06-04T04:21:22;19.30;56.70
16402;DHT22;8310;44.626;11.176;2023-06-04T04:23:51;19.30;56.70
16402;DHT22;8310;44.626;11.176;2023-06-04T04:26:19;19.30;56.90
16402;DHT22;8310;44.626;11.176;2023-06-04T04:28:46;19.30;57.00
16402;DHT22;8310;44.626;11.176;2023-06-04T04:31:13;19.40;57.10
16402;DHT22;8310;44.626;11.176;2023-06-04T04:33:40;19.40;57.10
16402;DHT22;8310;44.626;11.176;2023-06-04T04:36:07;19.50;57.20
16402;DHT22;8310;44.626;11.176;2023-06-04T04:38:37;19.50;57.20
16402;DHT22;8310;44.626;11.176;2023-06-04T04:41:07;19.50;57.20
16402;DHT22;8310;44.626;11.176;2023-06-04T04:43:35;19.60;57.20
16402;DHT22;8310;44.626;11.176;2023-06-04T04:46:02;19.60;57.20
16402;DHT22;8310;44.626;11.176;2023-06-04T04:48:30;19.70;57.30
16402;DHT22;8310;44.626;11.176;2023-06-04T04:50:57;19.70;57.30
16402;DHT22;8310;44.626;11.176;2023-06-04T04:53:25;19.70;57.30
16402;DHT22;8310;44.626;11.176;2023-06-04T04:55:52;19.70;57.20
16402;DHT22;8310;44.626;11.176;2023-06-04T04:58:21;19.70;57.30
16402;DHT22;8310;44.626;11.176;2023-06-04T05:00:48;19.80;57.30
16402;DHT22;8310;44.626;11.176;2023-06-04T05:03:17;19.80;57.40
16402;DHT22;8310;44.626;11.176;2023-06-04T05:05:44;19.80;57.40
16402;DHT22;8310;44.626;11.176;2023-06-04T05:08:11;19.80;57.50
16402;DHT22;8310;44.626;11.176;2023-06-04T05:10:38;19.80;57.60
16402;DHT22;8310;44.626;11.176;2023-06-04T05:13:05;19.90;57.70
16402;DHT22;8310;44.626;11.176;2023-06-04T05:15:34;19.90;57.60
16402;DHT22;8310;44.626;11.176;2023-06-04T05:18:02;20.00;57.80
16402;DHT22;8310;44.626;11.176;2023-06-04T05:20:29;20.00;57.90
16402;DHT22;8310;44.626;11.176;2023-06-04T05:22:57;20.10;58.10
16402;DHT22;8310;44.626;11.176;2023-06-04T05:25:24;20.20;58.30
16402;DHT22;8310;44.626;11.176;2023-06-04T05:27:52;20.30;58.40
16402;DHT22;8310;44.626;11.176;2023-06-04T05:30:19;20.40;58.40
16402;DHT22;8310;44.626;11.176;2023-06-04T05:32:48;20.50;58.30
16402;DHT22;8310;44.626;11.176;2023-06-04T05:35:16;20.50;58.20
16402;DHT22;8310;44.626;11.176;2023-06-04T05:37:43;20.50;58.20
16402;DHT22;8310;44.626;11.176;2023-06-04T05:40:11;20.50;58.20
16402;DHT22;8310;44.626;11.176;2023-06-04T05:42:38;20.50;58.70
16402;DHT22;8310;44.626;11.176;2023-06-04T05:45:06;20.50;58.10
16402;DHT22;8310;44.626;11.176;2023-06-04T05:47:34;20.50;57.90
16402;DHT22;8310;44.626;11.176;2023-06-04T05:50:04;20.50;58.60
16402;DHT22;8310;44.626;11.176;2023-06-04T05:52:31;20.60;58.20
16402;DHT22;8310;44.626;11.176;2023-06-04T05:54:58;20.60;58.30
16402;DHT22;8310;44.626;11.176;2023-06-04T05:57:26;20.70;58.30
16402;DHT22;8310;44.626;11.176;2023-06-04T05:59:53;20.80;58.30
16402;DHT22;8310;44.626;11.176;2023-06-04T06:02:20;20.80;58.20
16402;DHT22;8310;44.626;11.176;2023-06-04T06:04:47;20.80;58.20
16402;DHT22;8310;44.626;11.176;2023-06-04T06:07:16;20.90;58.30
16402;DHT22;8310;44.626;11.176;2023-06-04T06:09:44;20.90;58.40
16402;DHT22;8310;44.626;11.176;2023-06-04T06:12:12;21.00;58.60
16402;DHT22;8310;44.626;11.176;2023-06-04T06:14:39;21.00;58.70
16402;DHT22;8310;44.626;11.176;2023-06-04T06:17:06;21.20;58.90
16402;DHT22;8310;44.626;11.176;2023-06-04T06:19:33;21.30;59.20
16402;DHT22;8310;44.626;11.176;2023-06-04T06:22:00;21.50;59.60
16402;DHT22;8310;44.626;11.176;2023-06-04T06:24:30;21.70;59.60
16402;DHT22;8310;44.626;11.176;2023-06-04T06:26:57;21.90;59.80
16402;DHT22;8310;44.626;11.176;2023-06-04T06:29:24;22.10;59.90
16402;DHT22;8310;44.626;11.176;2023-06-04T06:31:52;22.30;60.00
16402;DHT22;8310;44.626;11.176;2023-06-04T06:34:19;22.40;60.00
16402;DHT22;8310;44.626;11.176;2023-06-04T06:36:46;22.60;60.10
16402;DHT22;8310;44.626;11.176;2023-06-04T06:39:14;22.80;60.30
16402;DHT22;8310;44.626;11.176;2023-06-04T06:41:42;22.90;60.20
16402;DHT22;8310;44.626;11.176;2023-06-04T06:44:10;23.10;60.40
16402;DHT22;8310;44.626;11.176;2023-06-04T06:46:37;23.30;60.80
16402;DHT22;8310;44.626;11.176;2023-06-04T06:49:04;23.50;60.40
16402;DHT22;8310;44.626;11.176;2023-06-04T06:51:31;23.60;59.80
16402;DHT22;8310;44.626;11.176;2023-06-04T06:53:59;23.60;59.60
16402;DHT22;8310;44.626;11.176;2023-06-04T06:56:26;23.50;59.30
16402;DHT22;8310;44.626;11.176;2023-06-04T06:58:55;23.50;59.40
16402;DHT22;8310;44.626;11.176;2023-06-04T07:01:22;23.40;59.70
16402;DHT22;8310;44.626;11.176;2023-06-04T07:03:49;23.40;59.40
16402;DHT22;8310;44.626;11.176;2023-06-04T07:06:16;23.40;59.70
16402;DHT22;8310;44.626;11.176;2023-06-04T07:08:44;23.50;59.90
16402;DHT22;8310;44.626;11.176;2023-06-04T07:11:13;23.60;60.90
16402;DHT22;8310;44.626;11.176;2023-06-04T07:13:42;23.70;60.20
16402;DHT22;8310;44.626;11.176;2023-06-04T07:16:10;23.90;59.80
16402;DHT22;8310;44.626;11.176;2023-06-04T07:18:38;24.00;59.50
16402;DHT22;8310;44.626;11.176;2023-06-04T07:21:05;24.00;59.60
16402;DHT22;8310;44.626;11.176;2023-06-04T07:23:32;24.00;59.60
16402;DHT22;8310;44.626;11.176;2023-06-04T07:25:59;24.10;59.90
16402;DHT22;8310;44.626;11.176;2023-06-04T07:28:26;24.20;60.50
16402;DHT22;8310;44.626;11.176;2023-06-04T07:30:54;24.30;60.00
16402;DHT22;8310;44.626;11.176;2023-06-04T07:33:22;24.40;60.10
16402;DHT22;8310;44.626;11.176;2023-06-04T07:35:49;24.50;60.00
16402;DHT22;8310;44.626;11.176;2023-06-04T07:38:17;24.60;60.10
16402;DHT22;8310;44.626;11.176;2023-06-04T07:40:45;24.60;60.00
16402;DHT22;8310;44.626;11.176;2023-06-04T07:43:12;24.70;59.70
16402;DHT22;8310;44.626;11.176;2023-06-04T07:45:39;24.70;59.70
16402;DHT22;8310;44.626;11.176;2023-06-04T07:48:08;24.70;59.80
16402;DHT22;8310;44.626;11.176;2023-06-04T07:50:37;24.70;60.50
16402;DHT22;8310;44.626;11.176;2023-06-04T07:53:05;24.80;60.10
16402;DHT22;8310;44.626;11.176;2023-06-04T07:55:32;24.80;59.90
16402;DHT22;8310;44.626;11.176;2023-06-04T07:58:00;24.80;59.80
16402;DHT22;8310;44.626;11.176;2023-06-04T08:00:27;24.90;60.10
16402;DHT22;8310;44.626;11.176;2023-06-04T08:02:54;24.90;60.10
16402;DHT22;8310;44.626;11.176;2023-06-04T08:05:22;25.00;60.20
16402;DHT22;8310;44.626;11.176;2023-06-04T08:07:50;25.10;60.20
16402;DHT22;8310;44.626;11.176;2023-06-04T08:10:18;25.20;60.80
16402;DHT22;8310;44.626;11.176;2023-06-04T08:12:46;25.30;60.60
16402;DHT22;8310;44.626;11.176;2023-06-04T08:15:13;25.40;60.80
16402;DHT22;8310;44.626;11.176;2023-06-04T08:17:40;25.50;60.60
16402;DHT22;8310;44.626;11.176;2023-06-04T08:20:08;25.60;60.60
16402;DHT22;8310;44.626;11.176;2023-06-04T08:22:35;25.70;60.70
16402;DHT22;8310;44.626;11.176;2023-06-04T08:25:05;25.90;60.80
16402;DHT22;8310;44.626;11.176;2023-06-04T08:27:34;26.00;60.70
16402;DHT22;8310;44.626;11.176;2023-06-04T08:30:01;26.10;60.60
16402;DHT22;8310;44.626;11.176;2023-06-04T08:32:29;26.20;60.50
16402;DHT22;8310;44.626;11.176;2023-06-04T08:34:56;26.30;60.60
16402;DHT22;8310;44.626;11.176;2023-06-04T08:37:23;26.40;60.70
16402;DHT22;8310;44.626;11.176;2023-06-04T08:39:51;26.60;60.80
16402;DHT22;8310;44.626;11.176;2023-06-04T08:42:22;26.70;60.70
16402;DHT22;8310;44.626;11.176;2023-06-04T08:44:49;26.80;60.50
16402;DHT22;8310;44.626;11.176;2023-06-04T08:47:17;26.90;60.10
16402;DHT22;8310;44.626;11.176;2023-06-04T08:49:47;26.90;60.10
16402;DHT22;8310;44.626;11.176;2023-06-04T08:52:15;27.00;60.50
16402;DHT22;8310;44.626;11.176;2023-06-04T08:54:43;27.10;60.40
16402;DHT22;8310;44.626;11.176;2023-06-04T08:57:10;27.10;60.10
16402;DHT22;8310;44.626;11.176;2023-06-04T08:59:39;27.20;60.10
16402;DHT22;8310;44.626;11.176;2023-06-04T09:02:06;27.20;60.30
16402;DHT22;8310;44.626;11.176;2023-06-04T09:04:34;27.30;60.20
16402;DHT22;8310;44.626;11.176;2023-06-04T09:07:01;27.30;59.90
16402;DHT22;8310;44.626;11.176;2023-06-04T09:09:29;27.30;60.30
16402;DHT22;8310;44.626;11.176;2023-06-04T09:11:57;27.40;60.50
16402;DHT22;8310;44.626;11.176;2023-06-04T09:14:24;27.40;60.40
16402;DHT22;8310;44.626;11.176;2023-06-04T09:16:53;27.50;60.50
16402;DHT22;8310;44.626;11.176;2023-06-04T09:19:20;27.60;60.70
16402;DHT22;8310;44.626;11.176;2023-06-04T09:21:48;27.70;61.00
16402;DHT22;8310;44.626;11.176;2023-06-04T09:24:16;28.00;61.40
16402;DHT22;8310;44.626;11.176;2023-06-04T09:26:44;28.10;60.70
16402;DHT22;8310;44.626;11.176;2023-06-04T09:29:11;28.10;60.00
16402;DHT22;8310;44.626;11.176;2023-06-04T09:31:38;28.10;59.40
16402;DHT22;8310;44.626;11.176;2023-06-04T09:34:07;28.10;59.60
16402;DHT22;8310;44.626;11.176;2023-06-04T09:36:35;28.10;59.80
16402;DHT22;8310;44.626;11.176;2023-06-04T09:39:02;28.10;60.00
16402;DHT22;8310;44.626;11.176;2023-06-04T09:41:30;28.20;60.00
16402;DHT22;8310;44.626;11.176;2023-06-04T09:44:00;28.30;59.30
16402;DHT22;8310;44.626;11.176;2023-06-04T09:46:29;28.30;59.60
16402;DHT22;8310;44.626;11.176;2023-06-04T09:48:59;28.30;59.70
16402;DHT22;8310;44.626;11.176;2023-06-04T09:51:29;28.30;59.80
16402;DHT22;8310;44.626;11.176;2023-06-04T09:53:56;28.40;59.80
16402;DHT22;8310;44.626;11.176;2023-06-04T09:56:24;28.40;59.70
16402;DHT22;8310;44.626;11.176;2023-06-04T09:58:53;28.40;59.80
16402;DHT22;8310;44.626;11.176;2023-06-04T10:01:20;28.50;59.80
16402;DHT22;8310;44.626;11.176;2023-06-04T10:03:50;28.50;59.60
16402;DHT22;8310;44.626;11.176;2023-06-04T10:06:18;28.50;59.50
16402;DHT22;8310;44.626;11.176;2023-06-04T10:08:47;28.50;59.60
16402;DHT22;8310;44.626;11.176;2023-06-04T10:11:16;28.50;59.60
16402;DHT22;8310;44.626;11.176;2023-06-04T10:13:45;28.50;59.60
16402;DHT22;8310;44.626;11.176;2023-06-04T10:16:14;28.50;59.40
16402;DHT22;8310;44.626;11.176;2023-06-04T10:18:41;28.50;59.60
16402;DHT22;8310;44.626;11.176;2023-06-04T10:21:09;28.60;59.60
16402;DHT22;8310;44.626;11.176;2023-06-04T10:23:36;28.60;59.80
16402;DHT22;8310;44.626;11.176;2023-06-04T10:26:05;28.70;59.70
16402;DHT22;8310;44.626;11.176;2023-06-04T10:28:32;28.80;59.60
16402;DHT22;8310;44.626;11.176;2023-06-04T10:31:00;28.80;59.30
16402;DHT22;8310;44.626;11.176;2023-06-04T10:33:28;28.80;59.40
16402;DHT22;8310;44.626;11.176;2023-06-04T10:35:55;28.80;59.60
16402;DHT22;8310;44.626;11.176;2023-06-04T10:38:22;28.90;59.60
16402;DHT22;8310;44.626;11.176;2023-06-04T10:40:51;28.90;59.40
16402;DHT22;8310;44.626;11.176;2023-06-04T10:43:20;28.90;59.20
16402;DHT22;8310;44.626;11.176;2023-06-04T10:45:47;28.90;59.30
16402;DHT22;8310;44.626;11.176;2023-06-04T10:48:15;28.80;59.30
16402;DHT22;8310;44.626;11.176;2023-06-04T10:50:48;28.90;59.60
16402;DHT22;8310;44.626;11.176;2023-06-04T10:53:16;29.00;59.70
16402;DHT22;8310;44.626;11.176;2023-06-04T10:55:44;29.10;59.80
16402;DHT22;8310;44.626;11.176;2023-06-04T10:58:11;29.30;59.60
16402;DHT22;8310;44.626;11.176;2023-06-04T11:00:40;29.30;59.80
16402;DHT22;8310;44.626;11.176;2023-06-04T11:03:09;29.30;59.80
16402;DHT22;8310;44.626;11.176;2023-06-04T11:05:36;29.40;59.80
16402;DHT22;8310;44.626;11.176;2023-06-04T11:08:04;29.40;59.30
16402;DHT22;8310;44.626;11.176;2023-06-04T11:10:32;29.30;59.20
16402;DHT22;8310;44.626;11.176;2023-06-04T11:13:01;29.30;59.30
16402;DHT22;8310;44.626;11.176;2023-06-04T11:15:37;29.30;59.30
16402;DHT22;8310;44.626;11.176;2023-06-04T11:18:05;29.30;59.30
16402;DHT22;8310;44.626;11.176;2023-06-04T11:20:33;29.30;59.20
16402;DHT22;8310;44.626;11.176;2023-06-04T11:23:00;29.30;59.10
16402;DHT22;8310;44.626;11.176;2023-06-04T11:25:28;29.30;59.20
16402;DHT22;8310;44.626;11.176;2023-06-04T11:27:56;29.30;59.30
16402;DHT22;8310;44.626;11.176;2023-06-04T11:30:23;29.30;59.30
16402;DHT22;8310;44.626;11.176;2023-06-04T11:32:50;29.30;59.50
16402;DHT22;8310;44.626;11.176;2023-06-04T11:35:28;29.40;59.90
16402;DHT22;8310;44.626;11.176;2023-06-04T11:37:55;29.60;60.00
16402;DHT22;8310;44.626;11.176;2023-06-04T11:40:22;29.80;60.00
16402;DHT22;8310;44.626;11.176;2023-06-04T11:42:49;29.90;59.70
16402;DHT22;8310;44.626;11.176;2023-06-04T11:45:16;29.90;58.40
16402;DHT22;8310;44.626;11.176;2023-06-04T11:47:44;29.80;58.60
16402;DHT22;8310;44.626;11.176;2023-06-04T11:50:12;29.70;59.40
16402;DHT22;8310;44.626;11.176;2023-06-04T11:52:41;29.60;59.10
16402;DHT22;8310;44.626;11.176;2023-06-04T11:55:09;29.70;59.30
16402;DHT22;8310;44.626;11.176;2023-06-04T11:57:37;29.70;59.60
16402;DHT22;8310;44.626;11.176;2023-06-04T12:00:04;29.90;59.80
16402;DHT22;8310;44.626;11.176;2023-06-04T12:02:34;30.00;59.80
16402;DHT22;8310;44.626;11.176;2023-06-04T12:05:10;30.10;59.80
16402;DHT22;8310;44.626;11.176;2023-06-04T12:07:37;30.30;60.10
16402;DHT22;8310;44.626;11.176;2023-06-04T12:10:09;30.40;60.10
16402;DHT22;8310;44.626;11.176;2023-06-04T12:12:37;30.50;59.80
16402;DHT22;8310;44.626;11.176;2023-06-04T12:15:05;30.60;60.10
16402;DHT22;8310;44.626;11.176;2023-06-04T12:17:32;30.80;60.00
16402;DHT22;8310;44.626;11.176;2023-06-04T12:20:00;30.80;59.80
16402;DHT22;8310;44.626;11.176;2023-06-04T12:22:27;30.80;59.20
16402;DHT22;8310;44.626;11.176;2023-06-04T12:24:55;30.80;59.60
16402;DHT22;8310;44.626;11.176;2023-06-04T12:27:24;30.80;59.40
16402;DHT22;8310;44.626;11.176;2023-06-04T12:29:55;30.80;59.40
16402;DHT22;8310;44.626;11.176;2023-06-04T12:32:22;30.90;59.50
16402;DHT22;8310;44.626;11.176;2023-06-04T12:34:50;30.80;59.50
16402;DHT22;8310;44.626;11.176;2023-06-04T12:37:17;30.90;59.60
16402;DHT22;8310;44.626;11.176;2023-06-04T12:39:44;30.90;59.50
16402;DHT22;8310;44.626;11.176;2023-06-04T12:42:12;31.00;59.30
16402;DHT22;8310;44.626;11.176;2023-06-04T12:44:41;30.90;59.20
16402;DHT22;8310;44.626;11.176;2023-06-04T12:47:08;30.90;59.40
16402;DHT22;8310;44.626;11.176;2023-06-04T12:49:36;30.90;59.60
16402;DHT22;8310;44.626;11.176;2023-06-04T12:52:03;31.00;59.60
16402;DHT22;8310;44.626;11.176;2023-06-04T12:54:31;31.10;59.80
16402;DHT22;8310;44.626;11.176;2023-06-04T12:56:59;31.20;59.80
16402;DHT22;8310;44.626;11.176;2023-06-04T12:59:27;31.30;59.40
16402;DHT22;8310;44.626;11.176;2023-06-04T13:01:56;31.40;59.60
16402;DHT22;8310;44.626;11.176;2023-06-04T13:04:23;31.40;59.60
16402;DHT22;8310;44.626;11.176;2023-06-04T13:06:51;31.40;59.60
16402;DHT22;8310;44.626;11.176;2023-06-04T13:09:24;31.50;59.50
16402;DHT22;8310;44.626;11.176;2023-06-04T13:11:53;31.40;59.40
16402;DHT22;8310;44.626;11.176;2023-06-04T13:14:20;31.50;59.40
16402;DHT22;8310;44.626;11.176;2023-06-04T13:16:48;31.50;59.50
16402;DHT22;8310;44.626;11.176;2023-06-04T13:19:18;31.60;59.40
16402;DHT22;8310;44.626;11.176;2023-06-04T13:21:46;31.60;59.20
16402;DHT22;8310;44.626;11.176;2023-06-04T13:24:13;31.60;59.20
16402;DHT22;8310;44.626;11.176;2023-06-04T13:26:40;31.50;59.00
16402;DHT22;8310;44.626;11.176;2023-06-04T13:29:07;31.50;58.80
16402;DHT22;8310;44.626;11.176;2023-06-04T13:31:34;31.40;58.80
16402;DHT22;8310;44.626;11.176;2023-06-04T13:34:02;31.40;58.80
16402;DHT22;8310;44.626;11.176;2023-06-04T13:36:30;31.30;58.60
16402;DHT22;8310;44.626;11.176;2023-06-04T13:38:58;31.30;58.60
16402;DHT22;8310;44.626;11.176;2023-06-04T13:41:24;31.20;58.50
16402;DHT22;8310;44.626;11.176;2023-06-04T13:43:52;31.20;58.40
16402;DHT22;8310;44.626;11.176;2023-06-04T13:46:19;31.10;58.30
16402;DHT22;8310;44.626;11.176;2023-06-04T13:48:46;31.00;58.40
16402;DHT22;8310;44.626;11.176;2023-06-04T13:51:13;31.00;58.40
16402;DHT22;8310;44.626;11.176;2023-06-04T13:53:42;30.90;58.30
16402;DHT22;8310;44.626;11.176;2023-06-04T13:56:09;30.90;58.30
16402;DHT22;8310;44.626;11.176;2023-06-04T13:58:37;30.90;58.40
16402;DHT22;8310;44.626;11.176;2023-06-04T14:01:04;30.80;58.30
16402;DHT22;8310;44.626;11.176;2023-06-04T14:03:31;30.70;58.20
16402;DHT22;8310;44.626;11.176;2023-06-04T14:05:59;30.70;58.10
16402;DHT22;8310;44.626;11.176;2023-06-04T14:08:26;30.70;58.20
16402;DHT22;8310;44.626;11.176;2023-06-04T14:10:55;30.60;58.10
16402;DHT22;8310;44.626;11.176;2023-06-04T14:13:22;30.60;58.10
16402;DHT22;8310;44.626;11.176;2023-06-04T14:15:49;30.60;58.10
16402;DHT22;8310;44.626;11.176;2023-06-04T14:18:17;30.50;58.10
16402;DHT22;8310;44.626;11.176;2023-06-04T14:20:44;30.50;58.00
16402;DHT22;8310;44.626;11.176;2023-06-04T14:23:11;30.50;58.00
16402;DHT22;8310;44.626;11.176;2023-06-04T14:25:38;30.40;57.90
16402;DHT22;8310;44.626;11.176;2023-06-04T14:28:07;30.40;57.90
16402;DHT22;8310;44.626;11.176;2023-06-04T14:30:34;30.40;57.90
16402;DHT22;8310;44.626;11.176;2023-06-04T14:33:02;30.30;57.80
16402;DHT22;8310;44.626;11.176;2023-06-04T14:35:29;30.30;57.90
16402;DHT22;8310;44.626;11.176;2023-06-04T14:37:56;30.20;57.70
16402;DHT22;8310;44.626;11.176;2023-06-04T14:40:24;30.20;57.60
16402;DHT22;8310;44.626;11.176;2023-06-04T14:42:51;30.10;57.60
16402;DHT22;8310;44.626;11.176;2023-06-04T14:45:20;30.10;57.60
16402;DHT22;8310;44.626;11.176;2023-06-04T14:47:47;30.00;57.60
16402;DHT22;8310;44.626;11.176;2023-06-04T14:50:16;30.00;57.70
16402;DHT22;8310;44.626;11.176;2023-06-04T14:52:44;30.00;57.70
16402;DHT22;8310;44.626;11.176;2023-06-04T14:55:11;30.00;57.70
16402;DHT22;8310;44.626;11.176;2023-06-04T14:57:41;29.90;57.70
16402;DHT22;8310;44.626;11.176;2023-06-04T15:00:08;29.90;57.70
16402;DHT22;8310;44.626;11.176;2023-06-04T15:02:36;29.90;57.70
16402;DHT22;8310;44.626;11.176;2023-06-04T15:05:03;29.90;57.70
16402;DHT22;8310;44.626;11.176;2023-06-04T15:07:30;29.80;57.60
16402;DHT22;8310;44.626;11.176;2023-06-04T15:09:57;29.80;57.60
16402;DHT22;8310;44.626;11.176;2023-06-04T15:12:24;29.80;57.60
16402;DHT22;8310;44.626;11.176;2023-06-04T15:14:52;29.70;57.50
16402;DHT22;8310;44.626;11.176;2023-06-04T15:17:19;29.60;57.30
16402;DHT22;8310;44.626;11.176;2023-06-04T15:19:48;29.60;57.30
16402;DHT22;8310;44.626;11.176;2023-06-04T15:22:14;29.50;57.30
16402;DHT22;8310;44.626;11.176;2023-06-04T15:24:42;29.40;57.10
16402;DHT22;8310;44.626;11.176;2023-06-04T15:27:09;29.40;57.10
16402;DHT22;8310;44.626;11.176;2023-06-04T15:29:37;29.30;57.10
16402;DHT22;8310;44.626;11.176;2023-06-04T15:32:04;29.20;57.00
16402;DHT22;8310;44.626;11.176;2023-06-04T15:34:31;29.10;56.90